sensor_id;sensor_type;location;lat;lon;timestamp;P1;durP1;ratioP1;P2;durP2;ratioP2
69783;SDS011;57054;51.978;4.498;2023-02-28T00:00:10;1.50;;;1.00;;
69783;SDS011;57054;51.978;4.498;2023-02-28T00:02:37;1.27;;;1.17;;
69783;SDS011;57054;51.978;4.498;2023-02-28T00:05:04;1.75;;;1.30;;
69783;SDS011;57054;51.978;4.498;2023-02-28T00:07:31;1.10;;;1.02;;
69783;SDS011;57054;51.978;4.498;2023-02-28T00:09:56;0.88;;;0.82;;
69783;SDS011;57054;51.978;4.498;2023-02-28T00:12:22;0.98;;;0.98;;
69783;SDS011;57054;51.978;4.498;2023-02-28T00:14:48;0.90;;;0.90;;
69783;SDS011;57054;51.978;4.498;2023-02-28T00:17:14;1.65;;;1.05;;
69783;SDS011;57054;51.978;4.498;2023-02-28T00:19:41;1.15;;;1.05;;
69783;SDS011;57054;51.978;4.498;2023-02-28T00:22:06;1.70;;;1.17;;
69783;SDS011;57054;51.978;4.498;2023-02-28T00:24:32;1.55;;;1.30;;
69783;SDS011;57054;51.978;4.498;2023-02-28T00:26:57;1.63;;;1.15;;
69783;SDS011;57054;51.978;4.498;2023-02-28T00:29:22;1.20;;;1.10;;
69783;SDS011;57054;51.978;4.498;2023-02-28T00:31:48;1.08;;;1.02;;
69783;SDS011;57054;51.978;4.498;2023-02-28T00:34:13;2.42;;;1.50;;
69783;SDS011;57054;51.978;4.498;2023-02-28T00:36:39;1.42;;;1.33;;
69783;SDS011;57054;51.978;4.498;2023-02-28T00:39:05;2.05;;;1.10;;
69783;SDS011;57054;51.978;4.498;2023-02-28T00:41:31;1.50;;;1.30;;
69783;SDS011;57054;51.978;4.498;2023-02-28T00:43:56;2.30;;;1.15;;
69783;SDS011;57054;51.978;4.498;2023-02-28T00:46:21;1.52;;;1.27;;
69783;SDS011;57054;51.978;4.498;2023-02-28T00:48:47;1.40;;;1.00;;
69783;SDS011;57054;51.978;4.498;2023-02-28T00:51:12;0.93;;;0.93;;
69783;SDS011;57054;51.978;4.498;2023-02-28T00:53:38;1.25;;;1.10;;
69783;SDS011;57054;51.978;4.498;2023-02-28T00:56:03;1.10;;;1.00;;
69783;SDS011;57054;51.978;4.498;2023-02-28T00:58:29;1.25;;;1.13;;
69783;SDS011;57054;51.978;4.498;2023-02-28T01:00:54;1.10;;;1.00;;
69783;SDS011;57054;51.978;4.498;2023-02-28T01:03:20;1.17;;;1.08;;
69783;SDS011;57054;51.978;4.498;2023-02-28T01:05:46;1.20;;;1.00;;
69783;SDS011;57054;51.978;4.498;2023-02-28T01:08:12;1.08;;;0.90;;
69783;SDS011;57054;51.978;4.498;2023-02-28T01:10:38;1.38;;;1.13;;
69783;SDS011;57054;51.978;4.498;2023-02-28T01:13:04;1.20;;;1.10;;
69783;SDS011;57054;51.978;4.498;2023-02-28T01:15:30;1.75;;;1.13;;
69783;SDS011;57054;51.978;4.498;2023-02-28T01:17:56;1.10;;;1.00;;
69783;SDS011;57054;51.978;4.498;2023-02-28T01:20:22;1.02;;;1.00;;
69783;SDS011;57054;51.978;4.498;2023-02-28T01:22:47;1.20;;;1.13;;
69783;SDS011;57054;51.978;4.498;2023-02-28T01:25:13;1.98;;;1.30;;
69783;SDS011;57054;51.978;4.498;2023-02-28T01:27:38;1.15;;;1.05;;
69783;SDS011;57054;51.978;4.498;2023-02-28T01:30:05;1.88;;;1.17;;
69783;SDS011;57054;51.978;4.498;2023-02-28T01:32:31;1.75;;;0.90;;
69783;SDS011;57054;51.978;4.498;2023-02-28T01:34:57;1.08;;;0.93;;
69783;SDS011;57054;51.978;4.498;2023-02-28T01:37:22;2.20;;;1.23;;
69783;SDS011;57054;51.978;4.498;2023-02-28T01:39:48;1.63;;;1.33;;
69783;SDS011;57054;51.978;4.498;2023-02-28T01:42:13;2.42;;;1.25;;
69783;SDS011;57054;51.978;4.498;2023-02-28T01:47:41;1.67;;;1.00;;
69783;SDS011;57054;51.978;4.498;2023-02-28T01:50:15;2.28;;;1.30;;
69783;SDS011;57054;51.978;4.498;2023-02-28T01:52:49;1.25;;;1.10;;
69783;SDS011;57054;51.978;4.498;2023-02-28T01:55:16;1.75;;;1.30;;
69783;SDS011;57054;51.978;4.498;2023-02-28T01:57:46;2.25;;;1.20;;
69783;SDS011;57054;51.978;4.498;2023-02-28T02:00:14;1.58;;;1.48;;
69783;SDS011;57054;51.978;4.498;2023-02-28T02:02:42;1.25;;;1.15;;
69783;SDS011;57054;51.978;4.498;2023-02-28T02:07:41;1.10;;;1.00;;
69783;SDS011;57054;51.978;4.498;2023-02-28T02:10:19;1.38;;;1.20;;
69783;SDS011;57054;51.978;4.498;2023-02-28T02:15:43;1.80;;;1.30;;
69783;SDS011;57054;51.978;4.498;2023-02-28T02:24:22;1.08;;;1.08;;
69783;SDS011;57054;51.978;4.498;2023-02-28T02:35:25;1.30;;;1.20;;
69783;SDS011;57054;51.978;4.498;2023-02-28T02:38:02;1.30;;;1.20;;
69783;SDS011;57054;51.978;4.498;2023-02-28T02:40:42;1.77;;;1.40;;
69783;SDS011;57054;51.978;4.498;2023-02-28T02:46:35;2.60;;;1.90;;
69783;SDS011;57054;51.978;4.498;2023-02-28T02:49:06;2.80;;;2.20;;
69783;SDS011;57054;51.978;4.498;2023-02-28T02:51:35;2.08;;;1.85;;
69783;SDS011;57054;51.978;4.498;2023-02-28T02:57:07;2.53;;;1.92;;
69783;SDS011;57054;51.978;4.498;2023-02-28T02:59:37;3.45;;;2.20;;
69783;SDS011;57054;51.978;4.498;2023-02-28T03:02:05;2.85;;;2.30;;
69783;SDS011;57054;51.978;4.498;2023-02-28T03:07:03;2.80;;;2.35;;
69783;SDS011;57054;51.978;4.498;2023-02-28T03:09:28;3.90;;;2.28;;
69783;SDS011;57054;51.978;4.498;2023-02-28T03:11:57;1.92;;;1.83;;
69783;SDS011;57054;51.978;4.498;2023-02-28T03:22:14;2.63;;;1.98;;
69783;SDS011;57054;51.978;4.498;2023-02-28T03:27:38;3.28;;;1.85;;
69783;SDS011;57054;51.978;4.498;2023-02-28T03:35:21;2.15;;;1.98;;
69783;SDS011;57054;51.978;4.498;2023-02-28T03:40:19;2.08;;;1.92;;
69783;SDS011;57054;51.978;4.498;2023-02-28T03:42:48;3.33;;;2.00;;
69783;SDS011;57054;51.978;4.498;2023-02-28T03:45:23;3.05;;;2.30;;
69783;SDS011;57054;51.978;4.498;2023-02-28T03:47:54;2.45;;;2.25;;
69783;SDS011;57054;51.978;4.498;2023-02-28T03:50:29;3.05;;;2.45;;
69783;SDS011;57054;51.978;4.498;2023-02-28T03:53:07;3.78;;;2.53;;
69783;SDS011;57054;51.978;4.498;2023-02-28T03:55:44;3.33;;;2.40;;
69783;SDS011;57054;51.978;4.498;2023-02-28T03:58:21;2.80;;;2.60;;
69783;SDS011;57054;51.978;4.498;2023-02-28T04:00:59;2.60;;;2.40;;
69783;SDS011;57054;51.978;4.498;2023-02-28T04:05:59;2.53;;;2.33;;
69783;SDS011;57054;51.978;4.498;2023-02-28T04:08:24;3.78;;;2.42;;
69783;SDS011;57054;51.978;4.498;2023-02-28T04:10:54;2.50;;;2.30;;
69783;SDS011;57054;51.978;4.498;2023-02-28T04:13:26;2.60;;;2.40;;
69783;SDS011;57054;51.978;4.498;2023-02-28T04:15:51;2.25;;;2.05;;
69783;SDS011;57054;51.978;4.498;2023-02-28T04:18:16;2.30;;;2.20;;
69783;SDS011;57054;51.978;4.498;2023-02-28T04:20:42;3.17;;;2.13;;
69783;SDS011;57054;51.978;4.498;2023-02-28T04:23:07;2.47;;;2.28;;
69783;SDS011;57054;51.978;4.498;2023-02-28T04:25:33;2.30;;;2.10;;
69783;SDS011;57054;51.978;4.498;2023-02-28T04:27:58;6.35;;;2.95;;
69783;SDS011;57054;51.978;4.498;2023-02-28T04:30:23;2.75;;;2.47;;
69783;SDS011;57054;51.978;4.498;2023-02-28T04:32:49;3.15;;;2.50;;
69783;SDS011;57054;51.978;4.498;2023-02-28T04:35:14;2.80;;;2.60;;
69783;SDS011;57054;51.978;4.498;2023-02-28T04:37:40;3.75;;;2.70;;
69783;SDS011;57054;51.978;4.498;2023-02-28T04:40:06;2.88;;;2.67;;
69783;SDS011;57054;51.978;4.498;2023-02-28T04:42:32;3.00;;;2.70;;
69783;SDS011;57054;51.978;4.498;2023-02-28T04:45:01;2.10;;;2.00;;
69783;SDS011;57054;51.978;4.498;2023-02-28T04:47:28;2.90;;;2.67;;
69783;SDS011;57054;51.978;4.498;2023-02-28T04:49:53;3.97;;;2.92;;
69783;SDS011;57054;51.978;4.498;2023-02-28T04:52:19;2.83;;;2.60;;
69783;SDS011;57054;51.978;4.498;2023-02-28T04:54:44;2.60;;;2.40;;
69783;SDS011;57054;51.978;4.498;2023-02-28T04:57:10;2.53;;;2.33;;
69783;SDS011;57054;51.978;4.498;2023-02-28T04:59:35;2.85;;;2.47;;
69783;SDS011;57054;51.978;4.498;2023-02-28T05:02:01;3.80;;;3.03;;
69783;SDS011;57054;51.978;4.498;2023-02-28T05:04:31;4.15;;;3.17;;
69783;SDS011;57054;51.978;4.498;2023-02-28T05:06:59;3.10;;;2.90;;
69783;SDS011;57054;51.978;4.498;2023-02-28T05:09:25;3.70;;;3.40;;
69783;SDS011;57054;51.978;4.498;2023-02-28T05:11:50;2.92;;;2.72;;
69783;SDS011;57054;51.978;4.498;2023-02-28T05:14:15;5.00;;;3.30;;
69783;SDS011;57054;51.978;4.498;2023-02-28T05:16:41;3.28;;;3.08;;
69783;SDS011;57054;51.978;4.498;2023-02-28T05:19:07;4.80;;;3.50;;
69783;SDS011;57054;51.978;4.498;2023-02-28T05:21:36;4.63;;;3.85;;
69783;SDS011;57054;51.978;4.498;2023-02-28T05:24:05;4.43;;;4.10;;
69783;SDS011;57054;51.978;4.498;2023-02-28T05:26:34;6.18;;;4.18;;
69783;SDS011;57054;51.978;4.498;2023-02-28T05:29:01;4.50;;;4.10;;
69783;SDS011;57054;51.978;4.498;2023-02-28T05:31:27;4.15;;;3.75;;
69783;SDS011;57054;51.978;4.498;2023-02-28T05:33:52;3.95;;;3.63;;
69783;SDS011;57054;51.978;4.498;2023-02-28T05:36:18;4.07;;;3.72;;
69783;SDS011;57054;51.978;4.498;2023-02-28T05:38:45;5.13;;;4.68;;
69783;SDS011;57054;51.978;4.498;2023-02-28T05:41:12;4.47;;;4.07;;
69783;SDS011;57054;51.978;4.498;2023-02-28T05:43:37;5.03;;;4.18;;
69783;SDS011;57054;51.978;4.498;2023-02-28T05:46:04;4.68;;;4.28;;
69783;SDS011;57054;51.978;4.498;2023-02-28T05:48:33;4.60;;;4.30;;
69783;SDS011;57054;51.978;4.498;2023-02-28T05:51:00;5.53;;;5.03;;
69783;SDS011;57054;51.978;4.498;2023-02-28T05:53:26;5.40;;;4.88;;
69783;SDS011;57054;51.978;4.498;2023-02-28T05:55:52;5.03;;;4.63;;
69783;SDS011;57054;51.978;4.498;2023-02-28T05:58:17;4.88;;;4.47;;
69783;SDS011;57054;51.978;4.498;2023-02-28T06:00:43;4.93;;;4.53;;
69783;SDS011;57054;51.978;4.498;2023-02-28T06:03:09;5.22;;;4.72;;
69783;SDS011;57054;51.978;4.498;2023-02-28T06:05:34;4.80;;;4.40;;
69783;SDS011;57054;51.978;4.498;2023-02-28T06:07:59;5.10;;;4.63;;
69783;SDS011;57054;51.978;4.498;2023-02-28T06:10:25;4.93;;;4.53;;
69783;SDS011;57054;51.978;4.498;2023-02-28T06:12:50;6.78;;;6.13;;
69783;SDS011;57054;51.978;4.498;2023-02-28T06:15:15;4.47;;;4.07;;
69783;SDS011;57054;51.978;4.498;2023-02-28T06:17:42;4.40;;;4.00;;
69783;SDS011;57054;51.978;4.498;2023-02-28T06:20:08;4.63;;;4.20;;
69783;SDS011;57054;51.978;4.498;2023-02-28T06:22:35;4.30;;;3.67;;
69783;SDS011;57054;51.978;4.498;2023-02-28T06:25:02;6.13;;;4.03;;
69783;SDS011;57054;51.978;4.498;2023-02-28T06:27:30;4.03;;;3.72;;
69783;SDS011;57054;51.978;4.498;2023-02-28T06:29:56;4.13;;;3.83;;
69783;SDS011;57054;51.978;4.498;2023-02-28T06:32:21;4.10;;;3.70;;
69783;SDS011;57054;51.978;4.498;2023-02-28T06:34:47;4.30;;;3.90;;
69783;SDS011;57054;51.978;4.498;2023-02-28T06:37:12;3.83;;;3.53;;
69783;SDS011;57054;51.978;4.498;2023-02-28T06:39:38;3.55;;;3.25;;
69783;SDS011;57054;51.978;4.498;2023-02-28T06:42:04;3.30;;;3.00;;
69783;SDS011;57054;51.978;4.498;2023-02-28T06:44:29;3.20;;;3.00;;
69783;SDS011;57054;51.978;4.498;2023-02-28T06:47:03;4.18;;;2.95;;
69783;SDS011;57054;51.978;4.498;2023-02-28T06:49:30;2.80;;;2.60;;
69783;SDS011;57054;51.978;4.498;2023-02-28T06:51:57;2.58;;;2.38;;
69783;SDS011;57054;51.978;4.498;2023-02-28T06:54:22;2.50;;;2.30;;
69783;SDS011;57054;51.978;4.498;2023-02-28T06:56:48;2.80;;;2.60;;
69783;SDS011;57054;51.978;4.498;2023-02-28T06:59:13;2.50;;;2.40;;
69783;SDS011;57054;51.978;4.498;2023-02-28T07:01:39;2.67;;;2.47;;
69783;SDS011;57054;51.978;4.498;2023-02-28T07:04:05;3.08;;;2.80;;
69783;SDS011;57054;51.978;4.498;2023-02-28T07:06:31;2.22;;;2.08;;
69783;SDS011;57054;51.978;4.498;2023-02-28T07:08:57;2.70;;;2.50;;
69783;SDS011;57054;51.978;4.498;2023-02-28T07:11:23;2.58;;;2.38;;
69783;SDS011;57054;51.978;4.498;2023-02-28T07:13:51;3.60;;;2.45;;
69783;SDS011;57054;51.978;4.498;2023-02-28T07:16:17;2.47;;;2.28;;
69783;SDS011;57054;51.978;4.498;2023-02-28T07:18:43;2.45;;;2.25;;
69783;SDS011;57054;51.978;4.498;2023-02-28T07:21:09;2.53;;;2.33;;
69783;SDS011;57054;51.978;4.498;2023-02-28T07:23:35;2.78;;;2.30;;
69783;SDS011;57054;51.978;4.498;2023-02-28T07:26:03;3.05;;;2.85;;
69783;SDS011;57054;51.978;4.498;2023-02-28T07:28:29;2.60;;;2.40;;
69783;SDS011;57054;51.978;4.498;2023-02-28T07:30:54;2.15;;;2.05;;
69783;SDS011;57054;51.978;4.498;2023-02-28T07:33:19;2.00;;;1.85;;
69783;SDS011;57054;51.978;4.498;2023-02-28T07:35:45;4.00;;;2.22;;
69783;SDS011;57054;51.978;4.498;2023-02-28T07:38:10;2.38;;;2.10;;
69783;SDS011;57054;51.978;4.498;2023-02-28T07:40:37;2.15;;;1.95;;
69783;SDS011;57054;51.978;4.498;2023-02-28T07:43:03;2.40;;;2.20;;
69783;SDS011;57054;51.978;4.498;2023-02-28T07:45:28;2.17;;;1.98;;
69783;SDS011;57054;51.978;4.498;2023-02-28T07:47:56;2.30;;;2.10;;
69783;SDS011;57054;51.978;4.498;2023-02-28T07:50:21;2.67;;;2.10;;
69783;SDS011;57054;51.978;4.498;2023-02-28T07:52:47;2.22;;;2.10;;
69783;SDS011;57054;51.978;4.498;2023-02-28T07:55:12;2.30;;;2.10;;
69783;SDS011;57054;51.978;4.498;2023-02-28T07:57:39;2.15;;;1.95;;
69783;SDS011;57054;51.978;4.498;2023-02-28T08:00:05;2.10;;;2.00;;
69783;SDS011;57054;51.978;4.498;2023-02-28T08:04:59;2.50;;;2.13;;
69783;SDS011;57054;51.978;4.498;2023-02-28T08:07:25;3.90;;;2.50;;
69783;SDS011;57054;51.978;4.498;2023-02-28T08:09:50;3.47;;;2.13;;
69783;SDS011;57054;51.978;4.498;2023-02-28T08:12:15;2.50;;;2.30;;
69783;SDS011;57054;51.978;4.498;2023-02-28T08:14:41;2.20;;;2.10;;
69783;SDS011;57054;51.978;4.498;2023-02-28T08:17:06;2.63;;;2.42;;
69783;SDS011;57054;51.978;4.498;2023-02-28T08:19:32;2.10;;;2.00;;
69783;SDS011;57054;51.978;4.498;2023-02-28T08:21:57;2.25;;;2.05;;
69783;SDS011;57054;51.978;4.498;2023-02-28T08:24:23;2.38;;;1.92;;
69783;SDS011;57054;51.978;4.498;2023-02-28T08:26:49;2.88;;;1.75;;
69783;SDS011;57054;51.978;4.498;2023-02-28T08:29:14;2.28;;;2.08;;
69783;SDS011;57054;51.978;4.498;2023-02-28T08:31:40;2.00;;;1.90;;
69783;SDS011;57054;51.978;4.498;2023-02-28T08:34:06;2.45;;;2.00;;
69783;SDS011;57054;51.978;4.498;2023-02-28T08:36:33;2.30;;;2.10;;
69783;SDS011;57054;51.978;4.498;2023-02-28T08:38:59;2.83;;;2.00;;
69783;SDS011;57054;51.978;4.498;2023-02-28T08:41:24;2.33;;;2.03;;
69783;SDS011;57054;51.978;4.498;2023-02-28T08:43:51;2.05;;;1.95;;
69783;SDS011;57054;51.978;4.498;2023-02-28T08:46:17;2.20;;;2.00;;
69783;SDS011;57054;51.978;4.498;2023-02-28T08:48:42;2.10;;;2.00;;
69783;SDS011;57054;51.978;4.498;2023-02-28T08:51:10;2.20;;;2.00;;
69783;SDS011;57054;51.978;4.498;2023-02-28T08:53:38;3.78;;;2.60;;
69783;SDS011;57054;51.978;4.498;2023-02-28T08:56:06;2.67;;;2.40;;
69783;SDS011;57054;51.978;4.498;2023-02-28T08:58:34;2.35;;;2.00;;
69783;SDS011;57054;51.978;4.498;2023-02-28T09:01:00;2.30;;;2.20;;
69783;SDS011;57054;51.978;4.498;2023-02-28T09:03:32;2.53;;;2.15;;
69783;SDS011;57054;51.978;4.498;2023-02-28T09:05:58;2.30;;;2.20;;
69783;SDS011;57054;51.978;4.498;2023-02-28T09:08:25;2.90;;;2.17;;
69783;SDS011;57054;51.978;4.498;2023-02-28T09:10:52;2.25;;;2.05;;
69783;SDS011;57054;51.978;4.498;2023-02-28T09:13:18;1.73;;;1.63;;
69783;SDS011;57054;51.978;4.498;2023-02-28T09:15:43;2.03;;;1.92;;
69783;SDS011;57054;51.978;4.498;2023-02-28T09:18:08;2.20;;;2.00;;
69783;SDS011;57054;51.978;4.498;2023-02-28T09:20:37;3.45;;;2.03;;
69783;SDS011;57054;51.978;4.498;2023-02-28T09:23:03;2.40;;;2.20;;
69783;SDS011;57054;51.978;4.498;2023-02-28T09:25:28;2.53;;;2.42;;
69783;SDS011;57054;51.978;4.498;2023-02-28T09:27:54;2.70;;;2.50;;
69783;SDS011;57054;51.978;4.498;2023-02-28T09:30:19;3.30;;;3.00;;
69783;SDS011;57054;51.978;4.498;2023-02-28T09:32:45;2.80;;;2.60;;
69783;SDS011;57054;51.978;4.498;2023-02-28T09:35:17;2.50;;;2.40;;
69783;SDS011;57054;51.978;4.498;2023-02-28T09:37:49;2.90;;;2.70;;
69783;SDS011;57054;51.978;4.498;2023-02-28T09:40:17;3.20;;;2.92;;
69783;SDS011;57054;51.978;4.498;2023-02-28T09:42:45;3.05;;;2.85;;
69783;SDS011;57054;51.978;4.498;2023-02-28T09:47:54;3.13;;;2.83;;
69783;SDS011;57054;51.978;4.498;2023-02-28T09:52:57;3.65;;;3.35;;
69783;SDS011;57054;51.978;4.498;2023-02-28T09:55:31;3.00;;;2.80;;
69783;SDS011;57054;51.978;4.498;2023-02-28T09:58:04;4.35;;;2.80;;
69783;SDS011;57054;51.978;4.498;2023-02-28T10:00:34;3.03;;;2.80;;
69783;SDS011;57054;51.978;4.498;2023-02-28T10:06:05;2.90;;;2.70;;
69783;SDS011;57054;51.978;4.498;2023-02-28T10:08:38;2.90;;;2.70;;
69783;SDS011;57054;51.978;4.498;2023-02-28T10:11:11;3.00;;;2.80;;
69783;SDS011;57054;51.978;4.498;2023-02-28T10:20:05;3.15;;;2.95;;
69783;SDS011;57054;51.978;4.498;2023-02-28T10:22:11;4.45;;;3.28;;
69783;SDS011;57054;51.978;4.498;2023-02-28T10:24:46;3.03;;;2.72;;
69783;SDS011;57054;51.978;4.498;2023-02-28T10:27:20;2.65;;;2.45;;
69783;SDS011;57054;51.978;4.498;2023-02-28T10:29:48;3.08;;;2.80;;
69783;SDS011;57054;51.978;4.498;2023-02-28T10:32:18;2.90;;;2.67;;
69783;SDS011;57054;51.978;4.498;2023-02-28T10:34:49;3.05;;;2.67;;
69783;SDS011;57054;51.978;4.498;2023-02-28T10:37:17;3.20;;;2.90;;
69783;SDS011;57054;51.978;4.498;2023-02-28T10:39:45;2.97;;;2.78;;
69783;SDS011;57054;51.978;4.498;2023-02-28T10:47:35;4.07;;;2.67;;
69783;SDS011;57054;51.978;4.498;2023-02-28T10:50:25;3.40;;;3.10;;
69783;SDS011;57054;51.978;4.498;2023-02-28T10:52:54;3.10;;;2.85;;
69783;SDS011;57054;51.978;4.498;2023-02-28T10:55:21;3.38;;;3.15;;
69783;SDS011;57054;51.978;4.498;2023-02-28T10:57:50;3.50;;;3.20;;
69783;SDS011;57054;51.978;4.498;2023-02-28T11:00:20;3.45;;;3.15;;
69783;SDS011;57054;51.978;4.498;2023-02-28T11:02:47;3.88;;;3.53;;
69783;SDS011;57054;51.978;4.498;2023-02-28T11:05:35;4.45;;;3.40;;
69783;SDS011;57054;51.978;4.498;2023-02-28T11:08:05;3.97;;;3.13;;
69783;SDS011;57054;51.978;4.498;2023-02-28T11:10:36;3.30;;;3.00;;
69783;SDS011;57054;51.978;4.498;2023-02-28T11:13:02;3.08;;;2.88;;
69783;SDS011;57054;51.978;4.498;2023-02-28T11:15:37;3.38;;;3.17;;
69783;SDS011;57054;51.978;4.498;2023-02-28T11:20:37;3.30;;;3.05;;
69783;SDS011;57054;51.978;4.498;2023-02-28T11:23:03;5.80;;;3.55;;
69783;SDS011;57054;51.978;4.498;2023-02-28T11:25:31;4.93;;;2.95;;
69783;SDS011;57054;51.978;4.498;2023-02-28T11:27:59;3.53;;;3.22;;
69783;SDS011;57054;51.978;4.498;2023-02-28T11:32:59;3.00;;;2.75;;
69783;SDS011;57054;51.978;4.498;2023-02-28T11:35:31;2.80;;;2.60;;
69783;SDS011;57054;51.978;4.498;2023-02-28T11:38:00;2.72;;;2.53;;
69783;SDS011;57054;51.978;4.498;2023-02-28T11:43:30;3.13;;;2.80;;
69783;SDS011;57054;51.978;4.498;2023-02-28T11:51:53;2.47;;;2.10;;
69783;SDS011;57054;51.978;4.498;2023-02-28T11:57:32;4.10;;;2.60;;
69783;SDS011;57054;51.978;4.498;2023-02-28T12:03:42;2.60;;;2.40;;
69783;SDS011;57054;51.978;4.498;2023-02-28T12:05:50;2.58;;;2.38;;
69783;SDS011;57054;51.978;4.498;2023-02-28T12:13:42;2.72;;;2.40;;
69783;SDS011;57054;51.978;4.498;2023-02-28T12:16:18;2.80;;;2.25;;
69783;SDS011;57054;51.978;4.498;2023-02-28T12:24:39;3.05;;;2.30;;
69783;SDS011;57054;51.978;4.498;2023-02-28T12:27:16;3.00;;;2.40;;
69783;SDS011;57054;51.978;4.498;2023-02-28T12:29:53;5.35;;;2.42;;
69783;SDS011;57054;51.978;4.498;2023-02-28T12:32:26;2.70;;;2.50;;
69783;SDS011;57054;51.978;4.498;2023-02-28T12:34:58;2.58;;;2.38;;
69783;SDS011;57054;51.978;4.498;2023-02-28T12:40:06;4.35;;;2.47;;
69783;SDS011;57054;51.978;4.498;2023-02-28T12:42:39;3.05;;;2.75;;
69783;SDS011;57054;51.978;4.498;2023-02-28T12:45:10;4.15;;;2.90;;
69783;SDS011;57054;51.978;4.498;2023-02-28T12:47:42;3.35;;;3.10;;
69783;SDS011;57054;51.978;4.498;2023-02-28T12:50:10;2.75;;;2.45;;
69783;SDS011;57054;51.978;4.498;2023-02-28T12:55:21;2.53;;;2.33;;
69783;SDS011;57054;51.978;4.498;2023-02-28T12:58:08;2.72;;;2.50;;
69783;SDS011;57054;51.978;4.498;2023-02-28T13:09:04;2.95;;;1.90;;
69783;SDS011;57054;51.978;4.498;2023-02-28T13:14:30;2.40;;;2.20;;
69783;SDS011;57054;51.978;4.498;2023-02-28T13:27:23;2.83;;;2.08;;
69783;SDS011;57054;51.978;4.498;2023-02-28T13:35:44;4.75;;;2.55;;
69783;SDS011;57054;51.978;4.498;2023-02-28T13:38:21;5.57;;;2.85;;
69783;SDS011;57054;51.978;4.498;2023-02-28T13:40:48;2.20;;;2.10;;
69783;SDS011;57054;51.978;4.498;2023-02-28T13:43:13;3.75;;;2.50;;
69783;SDS011;57054;51.978;4.498;2023-02-28T13:46:11;2.88;;;2.60;;
69783;SDS011;57054;51.978;4.498;2023-02-28T13:48:33;2.70;;;2.50;;
69783;SDS011;57054;51.978;4.498;2023-02-28T13:50:58;2.20;;;2.10;;
69783;SDS011;57054;51.978;4.498;2023-02-28T13:53:30;2.50;;;2.20;;
69783;SDS011;57054;51.978;4.498;2023-02-28T13:56:10;2.63;;;2.42;;
69783;SDS011;57054;51.978;4.498;2023-02-28T13:58:52;3.17;;;2.50;;
69783;SDS011;57054;51.978;4.498;2023-02-28T14:06:54;4.25;;;2.40;;
69783;SDS011;57054;51.978;4.498;2023-02-28T14:09:25;2.33;;;2.13;;
69783;SDS011;57054;51.978;4.498;2023-02-28T14:11:55;3.10;;;2.70;;
69783;SDS011;57054;51.978;4.498;2023-02-28T14:17:02;2.53;;;2.38;;
69783;SDS011;57054;51.978;4.498;2023-02-28T14:19:29;3.00;;;2.42;;
69783;SDS011;57054;51.978;4.498;2023-02-28T14:22:12;2.90;;;2.42;;
69783;SDS011;57054;51.978;4.498;2023-02-28T14:25:08;2.45;;;2.22;;
69783;SDS011;57054;51.978;4.498;2023-02-28T14:38:33;2.88;;;2.60;;
69783;SDS011;57054;51.978;4.498;2023-02-28T14:41:06;2.90;;;2.60;;
69783;SDS011;57054;51.978;4.498;2023-02-28T14:43:47;3.10;;;2.03;;
69783;SDS011;57054;51.978;4.498;2023-02-28T14:46:14;2.50;;;2.30;;
69783;SDS011;57054;51.978;4.498;2023-02-28T14:48:44;2.22;;;2.13;;
69783;SDS011;57054;51.978;4.498;2023-02-28T14:51:11;2.47;;;2.00;;
69783;SDS011;57054;51.978;4.498;2023-02-28T14:53:43;3.95;;;2.38;;
69783;SDS011;57054;51.978;4.498;2023-02-28T14:56:25;3.15;;;2.50;;
69783;SDS011;57054;51.978;4.498;2023-02-28T14:58:55;4.65;;;2.40;;
69783;SDS011;57054;51.978;4.498;2023-02-28T15:01:22;4.40;;;2.28;;
69783;SDS011;57054;51.978;4.498;2023-02-28T15:03:56;2.53;;;2.17;;
69783;SDS011;57054;51.978;4.498;2023-02-28T15:06:23;2.10;;;1.80;;
69783;SDS011;57054;51.978;4.498;2023-02-28T15:09:05;2.45;;;2.25;;
69783;SDS011;57054;51.978;4.498;2023-02-28T15:11:32;2.10;;;1.90;;
69783;SDS011;57054;51.978;4.498;2023-02-28T15:13:58;2.95;;;2.22;;
69783;SDS011;57054;51.978;4.498;2023-02-28T15:16:26;1.90;;;1.80;;
69783;SDS011;57054;51.978;4.498;2023-02-28T15:18:57;1.88;;;1.77;;
69783;SDS011;57054;51.978;4.498;2023-02-28T15:24:15;2.30;;;1.90;;
69783;SDS011;57054;51.978;4.498;2023-02-28T15:26:49;4.40;;;2.00;;
69783;SDS011;57054;51.978;4.498;2023-02-28T15:29:20;2.15;;;1.92;;
69783;SDS011;57054;51.978;4.498;2023-02-28T15:31:49;2.17;;;2.00;;
69783;SDS011;57054;51.978;4.498;2023-02-28T15:34:26;2.25;;;2.05;;
69783;SDS011;57054;51.978;4.498;2023-02-28T15:36:58;4.03;;;2.80;;
69783;SDS011;57054;51.978;4.498;2023-02-28T15:39:25;3.83;;;2.20;;
69783;SDS011;57054;51.978;4.498;2023-02-28T15:42:09;2.35;;;2.13;;
69783;SDS011;57054;51.978;4.498;2023-02-28T15:44:43;2.75;;;2.05;;
69783;SDS011;57054;51.978;4.498;2023-02-28T15:47:14;2.22;;;2.08;;
69783;SDS011;57054;51.978;4.498;2023-02-28T15:49:45;2.40;;;2.00;;
69783;SDS011;57054;51.978;4.498;2023-02-28T15:52:17;2.17;;;1.90;;
69783;SDS011;57054;51.978;4.498;2023-02-28T15:54:46;2.50;;;2.30;;
69783;SDS011;57054;51.978;4.498;2023-02-28T15:57:30;3.38;;;2.28;;
69783;SDS011;57054;51.978;4.498;2023-02-28T15:59:56;2.05;;;1.95;;
69783;SDS011;57054;51.978;4.498;2023-02-28T16:02:33;2.30;;;2.10;;
69783;SDS011;57054;51.978;4.498;2023-02-28T16:05:02;3.28;;;2.30;;
69783;SDS011;57054;51.978;4.498;2023-02-28T16:07:44;3.38;;;2.38;;
69783;SDS011;57054;51.978;4.498;2023-02-28T16:10:10;2.45;;;2.25;;
69783;SDS011;57054;51.978;4.498;2023-02-28T16:12:37;2.50;;;2.20;;
69783;SDS011;57054;51.978;4.498;2023-02-28T16:15:08;4.57;;;2.50;;
69783;SDS011;57054;51.978;4.498;2023-02-28T16:17:42;2.55;;;2.33;;
69783;SDS011;57054;51.978;4.498;2023-02-28T16:20:12;3.38;;;2.28;;
69783;SDS011;57054;51.978;4.498;2023-02-28T16:22:39;2.40;;;2.30;;
69783;SDS011;57054;51.978;4.498;2023-02-28T16:25:08;2.42;;;2.33;;
69783;SDS011;57054;51.978;4.498;2023-02-28T16:27:43;6.38;;;2.55;;
69783;SDS011;57054;51.978;4.498;2023-02-28T16:30:16;2.72;;;2.38;;
69783;SDS011;57054;51.978;4.498;2023-02-28T16:32:47;2.80;;;2.60;;
69783;SDS011;57054;51.978;4.498;2023-02-28T16:35:13;2.80;;;2.60;;
69783;SDS011;57054;51.978;4.498;2023-02-28T16:37:39;3.40;;;2.22;;
69783;SDS011;57054;51.978;4.498;2023-02-28T16:40:06;2.80;;;2.55;;
69783;SDS011;57054;51.978;4.498;2023-02-28T16:42:34;2.80;;;2.60;;
69783;SDS011;57054;51.978;4.498;2023-02-28T16:44:59;5.25;;;2.42;;
69783;SDS011;57054;51.978;4.498;2023-02-28T16:47:25;4.10;;;2.45;;
69783;SDS011;57054;51.978;4.498;2023-02-28T16:49:51;3.10;;;2.75;;
69783;SDS011;57054;51.978;4.498;2023-02-28T16:52:17;3.10;;;2.80;;
69783;SDS011;57054;51.978;4.498;2023-02-28T16:54:43;3.10;;;2.80;;
69783;SDS011;57054;51.978;4.498;2023-02-28T16:57:17;2.97;;;2.78;;
69783;SDS011;57054;51.978;4.498;2023-02-28T16:59:46;3.13;;;2.53;;
69783;SDS011;57054;51.978;4.498;2023-02-28T17:02:12;3.20;;;2.75;;
69783;SDS011;57054;51.978;4.498;2023-02-28T17:04:40;4.35;;;2.85;;
69783;SDS011;57054;51.978;4.498;2023-02-28T17:07:08;3.63;;;2.97;;
69783;SDS011;57054;51.978;4.498;2023-02-28T17:09:37;3.42;;;2.92;;
69783;SDS011;57054;51.978;4.498;2023-02-28T17:12:02;3.90;;;3.00;;
69783;SDS011;57054;51.978;4.498;2023-02-28T17:14:28;4.10;;;2.78;;
69783;SDS011;57054;51.978;4.498;2023-02-28T17:16:53;3.20;;;2.90;;
69783;SDS011;57054;51.978;4.498;2023-02-28T17:19:19;2.85;;;2.65;;
69783;SDS011;57054;51.978;4.498;2023-02-28T17:21:44;3.15;;;2.70;;
69783;SDS011;57054;51.978;4.498;2023-02-28T17:24:10;3.28;;;2.72;;
69783;SDS011;57054;51.978;4.498;2023-02-28T17:26:37;2.50;;;2.30;;
69783;SDS011;57054;51.978;4.498;2023-02-28T17:29:05;2.80;;;2.60;;
69783;SDS011;57054;51.978;4.498;2023-02-28T17:31:37;3.40;;;3.10;;
69783;SDS011;57054;51.978;4.498;2023-02-28T17:34:04;4.13;;;3.50;;
69783;SDS011;57054;51.978;4.498;2023-02-28T17:36:29;5.13;;;3.80;;